CYBL

Campbell River Airport

Campbell River, , Canada
METAR CYBL 250400Z 00000KT 15SM FEW005 SCT025 BKN055 OVC150 14/13 A2987 RMK SF1SC4SC2AC2 SF TR LAST STFD OBS/NEXT 251300 UTC SLP116 DENSITY ALT 400FT
Observed Flight Rules
Jun-25 @ 04:00 UTC (8 hours ago) Visual Flight Rules
Visibility Clouds
15 miles
  • Few at 500' AGL
  • Scattered at 2,500' AGL
  • Broken at 5,500' AGL
  • Overcast at 15,000' AGL
Temperatures Readings
Current 14°C / 57°F
Dewpoint 13°C / 55°F
Humidity 94%
Altimeter 29.87" Hg
Pressure 1011.6 hPa
Elevation 106
METAR CYBL 250400Z 00000KT 15SM FEW005 SCT025 BKN055 OVC150 14/13 A2987 RMK SF1SC4SC2AC2 SF TR LAST STFD OBS/NEXT 251300 UTC SLP116 DENSITY ALT 400FT
Observed Flight Rules
Jun-25 @ 04:00 UTC
(8 hours ago)
VFR
Clouds
  • Few at 500' AGL
  • Scattered at 2,500' AGL
  • Broken at 5,500' AGL
  • Overcast at 15,000' AGL
Temperature Dewpoint
14°C / 57°F 13°C / 55°F
Humidity Altimeter Pressure
94% 29.87" Hg 1011.6 hPa